sensor_id;sensor_type;location;lat;lon;timestamp;pressure;altitude;pressure_sealevel;temperature;humidity
19208;BME280;9737;59.466;18.036;2023-09-12T00:02:15;99126.81;;;14.87;83.32
19208;BME280;9737;59.466;18.036;2023-09-12T00:04:45;99151.22;;;14.92;83.30
19208;BME280;9737;59.466;18.036;2023-09-12T00:07:13;99169.44;;;14.97;83.41
19208;BME280;9737;59.466;18.036;2023-09-12T00:09:40;99131.00;;;14.90;83.33
19208;BME280;9737;59.466;18.036;2023-09-12T00:12:08;99129.31;;;14.88;83.33
19208;BME280;9737;59.466;18.036;2023-09-12T00:14:36;99118.13;;;14.85;83.11
19208;BME280;9737;59.466;18.036;2023-09-12T00:17:05;99141.72;;;14.90;83.38
19208;BME280;9737;59.466;18.036;2023-09-12T00:19:33;99154.75;;;14.93;83.02
19208;BME280;9737;59.466;18.036;2023-09-12T00:22:02;99168.44;;;14.98;83.43
19208;BME280;9737;59.466;18.036;2023-09-12T00:24:30;99192.72;;;14.96;83.50
19208;BME280;9737;59.466;18.036;2023-09-12T00:26:58;99213.13;;;15.05;83.34
19208;BME280;9737;59.466;18.036;2023-09-12T00:29:29;99229.50;;;15.10;83.36
19208;BME280;9737;59.466;18.036;2023-09-12T00:31:57;99232.19;;;15.10;83.37
19208;BME280;9737;59.466;18.036;2023-09-12T00:34:26;99240.88;;;15.12;83.65
19208;BME280;9737;59.466;18.036;2023-09-12T00:36:54;99276.34;;;15.23;83.68
19208;BME280;9737;59.466;18.036;2023-09-12T00:39:21;99302.94;;;15.24;83.59
19208;BME280;9737;59.466;18.036;2023-09-12T00:41:49;99321.84;;;15.31;83.64
19208;BME280;9737;59.466;18.036;2023-09-12T00:44:17;99321.84;;;15.31;83.72
19208;BME280;9737;59.466;18.036;2023-09-12T00:46:46;99351.66;;;15.36;83.61
19208;BME280;9737;59.466;18.036;2023-09-12T00:49:15;99394.16;;;15.47;83.51
19208;BME280;9737;59.466;18.036;2023-09-12T00:51:47;99385.63;;;15.43;83.82
19208;BME280;9737;59.466;18.036;2023-09-12T00:54:17;99385.47;;;15.45;83.56
19208;BME280;9737;59.466;18.036;2023-09-12T00:56:45;99413.41;;;15.50;83.65
19208;BME280;9737;59.466;18.036;2023-09-12T00:59:15;99432.84;;;15.53;83.71
19208;BME280;9737;59.466;18.036;2023-09-12T01:01:44;99484.31;;;15.64;84.05
19208;BME280;9737;59.466;18.036;2023-09-12T01:04:11;99499.88;;;15.69;83.90
19208;BME280;9737;59.466;18.036;2023-09-12T01:07:00;99504.25;;;15.70;83.90
19208;BME280;9737;59.466;18.036;2023-09-12T01:09:29;99536.56;;;15.76;84.03
19208;BME280;9737;59.466;18.036;2023-09-12T01:11:57;99520.81;;;15.73;84.12
19208;BME280;9737;59.466;18.036;2023-09-12T01:14:26;99532.03;;;15.77;83.99
19208;BME280;9737;59.466;18.036;2023-09-12T01:16:54;99549.81;;;15.78;83.90
19208;BME280;9737;59.466;18.036;2023-09-12T01:19:23;99568.06;;;15.83;83.98
19208;BME280;9737;59.466;18.036;2023-09-12T01:22:11;99571.75;;;15.82;84.08
19208;BME280;9737;59.466;18.036;2023-09-12T01:25:05;99580.13;;;15.87;84.04
19208;BME280;9737;59.466;18.036;2023-09-12T01:27:38;99589.16;;;15.86;84.02
19208;BME280;9737;59.466;18.036;2023-09-12T01:30:08;99592.53;;;15.88;84.40
19208;BME280;9737;59.466;18.036;2023-09-12T01:32:38;99623.03;;;15.95;84.17
19208;BME280;9737;59.466;18.036;2023-09-12T01:35:08;99631.09;;;15.95;84.31
19208;BME280;9737;59.466;18.036;2023-09-12T01:37:35;99646.84;;;15.98;84.30
19208;BME280;9737;59.466;18.036;2023-09-12T01:40:05;99654.72;;;15.99;84.42
19208;BME280;9737;59.466;18.036;2023-09-12T01:42:37;99676.34;;;16.06;84.27
19208;BME280;9737;59.466;18.036;2023-09-12T01:45:10;99666.78;;;16.03;84.36
19208;BME280;9737;59.466;18.036;2023-09-12T01:47:39;99683.38;;;16.07;84.31
19208;BME280;9737;59.466;18.036;2023-09-12T01:50:10;99688.75;;;16.07;84.45
19208;BME280;9737;59.466;18.036;2023-09-12T01:52:40;99688.75;;;16.07;84.29
19208;BME280;9737;59.466;18.036;2023-09-12T01:55:10;99691.44;;;16.07;84.45
19208;BME280;9737;59.466;18.036;2023-09-12T01:57:40;99704.50;;;16.10;84.56
19208;BME280;9737;59.466;18.036;2023-09-12T02:00:09;99711.56;;;16.11;84.61
19208;BME280;9737;59.466;18.036;2023-09-12T02:02:38;99713.22;;;16.12;84.54
19208;BME280;9737;59.466;18.036;2023-09-12T02:05:09;99704.50;;;16.10;84.56
19208;BME280;9737;59.466;18.036;2023-09-12T02:07:40;99741.41;;;16.16;84.65
19208;BME280;9737;59.466;18.036;2023-09-12T02:10:08;99728.16;;;16.15;84.66
19208;BME280;9737;59.466;18.036;2023-09-12T02:12:38;99733.34;;;16.16;84.73
19208;BME280;9737;59.466;18.036;2023-09-12T02:15:07;99727.31;;;16.14;84.68
19208;BME280;9737;59.466;18.036;2023-09-12T02:17:36;99712.56;;;16.10;84.59
19208;BME280;9737;59.466;18.036;2023-09-12T02:20:07;99711.56;;;16.11;84.59
19208;BME280;9737;59.466;18.036;2023-09-12T02:22:36;99743.91;;;16.18;84.56
19208;BME280;9737;59.466;18.036;2023-09-12T02:25:05;99747.44;;;16.18;84.83
19208;BME280;9737;59.466;18.036;2023-09-12T02:27:34;99767.59;;;16.22;84.65
19208;BME280;9737;59.466;18.036;2023-09-12T02:30:05;99746.75;;;16.16;84.85
19208;BME280;9737;59.466;18.036;2023-09-12T02:32:36;99758.03;;;16.20;84.60
19208;BME280;9737;59.466;18.036;2023-09-12T02:35:06;99767.59;;;16.22;84.74
19208;BME280;9737;59.466;18.036;2023-09-12T02:37:34;99770.44;;;16.21;84.80
19208;BME280;9737;59.466;18.036;2023-09-12T02:40:03;99781.69;;;16.24;84.78
19208;BME280;9737;59.466;18.036;2023-09-12T02:42:32;99785.19;;;16.25;84.84
19208;BME280;9737;59.466;18.036;2023-09-12T02:45:00;99762.84;;;16.16;84.96
19208;BME280;9737;59.466;18.036;2023-09-12T02:47:29;99752.13;;;16.16;84.85
19208;BME280;9737;59.466;18.036;2023-09-12T02:49:57;99774.63;;;16.23;84.88
19208;BME280;9737;59.466;18.036;2023-09-12T02:52:24;99760.84;;;16.18;84.79
19208;BME280;9737;59.466;18.036;2023-09-12T02:54:52;99762.84;;;16.16;84.82
19208;BME280;9737;59.466;18.036;2023-09-12T02:57:20;99807.16;;;16.28;84.98
19208;BME280;9737;59.466;18.036;2023-09-12T02:59:49;99804.81;;;16.25;84.73
19208;BME280;9737;59.466;18.036;2023-09-12T03:02:16;99777.31;;;16.23;85.14
19208;BME280;9737;59.466;18.036;2023-09-12T03:04:45;99788.88;;;16.24;84.97
19208;BME280;9737;59.466;18.036;2023-09-12T03:07:13;99774.63;;;16.23;84.96
19208;BME280;9737;59.466;18.036;2023-09-12T03:09:41;99805.66;;;16.26;85.01
19208;BME280;9737;59.466;18.036;2023-09-12T03:12:09;99816.91;;;16.29;85.06
19208;BME280;9737;59.466;18.036;2023-09-12T03:14:37;99845.06;;;16.33;85.06
19208;BME280;9737;59.466;18.036;2023-09-12T03:17:05;99844.06;;;16.34;84.91
19208;BME280;9737;59.466;18.036;2023-09-12T03:19:33;99825.63;;;16.31;85.02
19208;BME280;9737;59.466;18.036;2023-09-12T03:22:04;99823.94;;;16.30;85.09
19208;BME280;9737;59.466;18.036;2023-09-12T03:24:31;99845.06;;;16.33;85.13
19208;BME280;9737;59.466;18.036;2023-09-12T03:26:59;99846.75;;;16.34;85.05
19208;BME280;9737;59.466;18.036;2023-09-12T03:29:28;99840.53;;;16.34;85.19
19208;BME280;9737;59.466;18.036;2023-09-12T03:31:55;99860.00;;;16.36;85.15
19208;BME280;9737;59.466;18.036;2023-09-12T03:34:23;99839.72;;;16.33;85.21
19208;BME280;9737;59.466;18.036;2023-09-12T03:36:51;99853.78;;;16.35;85.11
19208;BME280;9737;59.466;18.036;2023-09-12T03:39:20;99845.06;;;16.33;85.45
19208;BME280;9737;59.466;18.036;2023-09-12T03:41:49;99832.16;;;16.29;85.09
19208;BME280;9737;59.466;18.036;2023-09-12T03:44:17;99824.25;;;16.27;85.14
19208;BME280;9737;59.466;18.036;2023-09-12T03:46:44;99824.25;;;16.27;85.27
19208;BME280;9737;59.466;18.036;2023-09-12T03:49:12;99823.44;;;16.27;85.17
19208;BME280;9737;59.466;18.036;2023-09-12T03:51:40;99879.28;;;16.39;85.22
19208;BME280;9737;59.466;18.036;2023-09-12T03:54:08;99874.94;;;16.38;85.13
19208;BME280;9737;59.466;18.036;2023-09-12T03:56:37;99890.69;;;16.41;85.20
19208;BME280;9737;59.466;18.036;2023-09-12T03:59:05;99883.66;;;16.40;85.25
19208;BME280;9737;59.466;18.036;2023-09-12T04:01:33;99881.97;;;16.39;85.36
19208;BME280;9737;59.466;18.036;2023-09-12T04:04:01;99891.72;;;16.40;85.42
19208;BME280;9737;59.466;18.036;2023-09-12T04:06:30;99896.06;;;16.41;85.40
19208;BME280;9737;59.466;18.036;2023-09-12T04:08:58;99867.88;;;16.37;85.26
19208;BME280;9737;59.466;18.036;2023-09-12T04:11:26;99866.53;;;16.33;85.35
19208;BME280;9737;59.466;18.036;2023-09-12T04:14:14;99880.31;;;16.38;85.33
19208;BME280;9737;59.466;18.036;2023-09-12T04:16:42;99891.72;;;16.40;85.49
19208;BME280;9737;59.466;18.036;2023-09-12T04:19:10;99892.56;;;16.41;85.35
19208;BME280;9737;59.466;18.036;2023-09-12T04:21:38;99878.47;;;16.39;85.49
19208;BME280;9737;59.466;18.036;2023-09-12T04:24:06;99889.34;;;16.37;85.54
19208;BME280;9737;59.466;18.036;2023-09-12T04:26:35;99936.38;;;16.50;85.39
19208;BME280;9737;59.466;18.036;2023-09-12T04:29:03;99925.09;;;16.46;85.45
19208;BME280;9737;59.466;18.036;2023-09-12T04:31:32;99977.66;;;16.57;85.42
19208;BME280;9737;59.466;18.036;2023-09-12T04:34:00;99963.56;;;16.55;85.48
19208;BME280;9737;59.466;18.036;2023-09-12T04:36:28;99965.41;;;16.54;85.60
19208;BME280;9737;59.466;18.036;2023-09-12T04:38:56;99953.16;;;16.52;85.38
19208;BME280;9737;59.466;18.036;2023-09-12T04:41:24;99954.00;;;16.52;85.37
19208;BME280;9737;59.466;18.036;2023-09-12T04:43:52;99960.88;;;16.55;85.40
19208;BME280;9737;59.466;18.036;2023-09-12T04:46:20;99955.84;;;16.52;85.49
19208;BME280;9737;59.466;18.036;2023-09-12T04:48:49;99978.00;;;16.54;85.41
19208;BME280;9737;59.466;18.036;2023-09-12T04:51:17;100008.22;;;16.64;85.49
19208;BME280;9737;59.466;18.036;2023-09-12T04:53:45;100032.78;;;16.69;85.51
19208;BME280;9737;59.466;18.036;2023-09-12T04:56:17;100055.78;;;16.71;85.46
19208;BME280;9737;59.466;18.036;2023-09-12T04:58:45;100036.47;;;16.68;85.58
19208;BME280;9737;59.466;18.036;2023-09-12T05:01:14;100041.50;;;16.71;85.57
19208;BME280;9737;59.466;18.036;2023-09-12T05:03:43;100025.03;;;16.66;85.51
19208;BME280;9737;59.466;18.036;2023-09-12T05:06:13;100020.66;;;16.65;85.45
19208;BME280;9737;59.466;18.036;2023-09-12T05:08:41;100047.88;;;16.70;85.74
19208;BME280;9737;59.466;18.036;2023-09-12T05:11:09;100109.03;;;16.84;85.59
19208;BME280;9737;59.466;18.036;2023-09-12T05:13:37;100081.84;;;16.79;85.68
19208;BME280;9737;59.466;18.036;2023-09-12T05:16:05;100074.06;;;16.76;85.60
19208;BME280;9737;59.466;18.036;2023-09-12T05:18:33;100066.50;;;16.71;85.63
19208;BME280;9737;59.466;18.036;2023-09-12T05:21:00;100056.63;;;16.72;85.32
19208;BME280;9737;59.466;18.036;2023-09-12T05:23:31;100082.13;;;16.76;85.69
19208;BME280;9737;59.466;18.036;2023-09-12T05:25:59;100101.47;;;16.80;85.68
19208;BME280;9737;59.466;18.036;2023-09-12T05:28:27;100084.81;;;16.76;85.54
19208;BME280;9737;59.466;18.036;2023-09-12T05:30:55;100099.31;;;16.83;85.67
19208;BME280;9737;59.466;18.036;2023-09-12T05:33:23;100117.94;;;16.85;85.73
19208;BME280;9737;59.466;18.036;2023-09-12T05:35:51;100103.00;;;16.82;85.71
19208;BME280;9737;59.466;18.036;2023-09-12T05:38:18;100116.94;;;16.86;85.68
19208;BME280;9737;59.466;18.036;2023-09-12T05:40:48;100155.75;;;16.91;85.67
19208;BME280;9737;59.466;18.036;2023-09-12T05:43:16;100168.69;;;16.96;85.74
19208;BME280;9737;59.466;18.036;2023-09-12T05:45:44;100189.69;;;17.00;85.70
19208;BME280;9737;59.466;18.036;2023-09-12T05:48:12;100213.25;;;17.07;85.75
19208;BME280;9737;59.466;18.036;2023-09-12T05:50:40;100239.47;;;17.13;85.69
19208;BME280;9737;59.466;18.036;2023-09-12T05:53:08;100248.22;;;17.15;85.71
19208;BME280;9737;59.466;18.036;2023-09-12T05:55:36;100294.63;;;17.25;85.61
19208;BME280;9737;59.466;18.036;2023-09-12T05:58:05;100297.16;;;17.26;85.68
19208;BME280;9737;59.466;18.036;2023-09-12T06:00:33;100302.38;;;17.28;85.78
19208;BME280;9737;59.466;18.036;2023-09-12T06:03:01;100288.56;;;17.23;85.74
19208;BME280;9737;59.466;18.036;2023-09-12T06:05:30;100299.00;;;17.26;85.76
19208;BME280;9737;59.466;18.036;2023-09-12T06:07:58;100307.06;;;17.26;85.70
19208;BME280;9737;59.466;18.036;2023-09-12T06:10:26;100348.25;;;17.34;85.67
19208;BME280;9737;59.466;18.036;2023-09-12T06:12:54;100378.06;;;17.41;85.70
19208;BME280;9737;59.466;18.036;2023-09-12T06:15:23;100382.44;;;17.42;85.77
19208;BME280;9737;59.466;18.036;2023-09-12T06:17:51;100404.31;;;17.47;85.70
19208;BME280;9737;59.466;18.036;2023-09-12T06:20:20;100432.25;;;17.54;85.78
19208;BME280;9737;59.466;18.036;2023-09-12T06:22:49;100500.09;;;17.66;85.69
19208;BME280;9737;59.466;18.036;2023-09-12T06:25:17;100520.84;;;17.74;85.71
19208;BME280;9737;59.466;18.036;2023-09-12T06:27:45;100559.56;;;17.81;85.73
19208;BME280;9737;59.466;18.036;2023-09-12T06:30:13;100616.53;;;17.94;85.65
19208;BME280;9737;59.466;18.036;2023-09-12T06:32:42;100642.97;;;17.99;85.73
19208;BME280;9737;59.466;18.036;2023-09-12T06:35:10;100620.22;;;17.93;85.78
19208;BME280;9737;59.466;18.036;2023-09-12T06:37:38;100609.72;;;17.90;85.72
19208;BME280;9737;59.466;18.036;2023-09-12T06:40:07;100617.66;;;17.91;85.55
19208;BME280;9737;59.466;18.036;2023-09-12T06:42:35;100642.97;;;17.99;85.70
19208;BME280;9737;59.466;18.036;2023-09-12T06:45:04;100710.38;;;18.15;85.80
19208;BME280;9737;59.466;18.036;2023-09-12T06:47:32;100724.50;;;18.17;85.61
19208;BME280;9737;59.466;18.036;2023-09-12T06:50:03;100727.34;;;18.15;85.58
19208;BME280;9737;59.466;18.036;2023-09-12T06:52:37;100742.91;;;18.21;85.65
19208;BME280;9737;59.466;18.036;2023-09-12T06:55:05;100706.13;;;18.12;85.67
19208;BME280;9737;59.466;18.036;2023-09-12T06:57:33;100678.16;;;18.05;85.63
19208;BME280;9737;59.466;18.036;2023-09-12T07:00:02;100680.16;;;18.03;85.70
19208;BME280;9737;59.466;18.036;2023-09-12T07:02:32;100658.63;;;18.03;85.81
19208;BME280;9737;59.466;18.036;2023-09-12T07:05:00;100660.63;;;18.01;85.59
19208;BME280;9737;59.466;18.036;2023-09-12T07:07:32;100676.47;;;18.04;85.51
19208;BME280;9737;59.466;18.036;2023-09-12T07:10:00;100693.00;;;18.09;85.62
19208;BME280;9737;59.466;18.036;2023-09-12T07:12:48;100701.91;;;18.10;85.70
19208;BME280;9737;59.466;18.036;2023-09-12T07:15:16;100703.59;;;18.11;85.57
19208;BME280;9737;59.466;18.036;2023-09-12T07:17:44;100700.91;;;18.11;85.47
19208;BME280;9737;59.466;18.036;2023-09-12T07:20:12;100713.22;;;18.13;85.62
19208;BME280;9737;59.466;18.036;2023-09-12T07:22:41;100755.38;;;18.22;85.59
19208;BME280;9737;59.466;18.036;2023-09-12T07:25:09;100783.53;;;18.28;85.44
19208;BME280;9737;59.466;18.036;2023-09-12T07:27:38;100802.59;;;18.35;85.56
19208;BME280;9737;59.466;18.036;2023-09-12T07:30:07;100843.91;;;18.43;85.55
19208;BME280;9737;59.466;18.036;2023-09-12T07:32:35;100929.41;;;18.59;85.52
19208;BME280;9737;59.466;18.036;2023-09-12T07:35:04;100948.69;;;18.64;85.67
19208;BME280;9737;59.466;18.036;2023-09-12T07:37:32;100913.56;;;18.56;85.67
19208;BME280;9737;59.466;18.036;2023-09-12T07:40:01;100899.41;;;18.54;85.47
19208;BME280;9737;59.466;18.036;2023-09-12T07:42:36;100912.72;;;18.55;85.47
19208;BME280;9737;59.466;18.036;2023-09-12T07:45:05;100898.56;;;18.53;85.31
19208;BME280;9737;59.466;18.036;2023-09-12T07:47:33;100891.75;;;18.49;85.56
19208;BME280;9737;59.466;18.036;2023-09-12T07:50:01;100843.03;;;18.43;85.52
19208;BME280;9737;59.466;18.036;2023-09-12T07:52:29;100919.63;;;18.58;85.45
19208;BME280;9737;59.466;18.036;2023-09-12T07:55:00;101013.81;;;18.77;85.46
19208;BME280;9737;59.466;18.036;2023-09-12T07:57:29;101108.72;;;18.99;85.19
19208;BME280;9737;59.466;18.036;2023-09-12T07:59:57;101186.97;;;19.16;85.40
19208;BME280;9737;59.466;18.036;2023-09-12T08:02:25;101229.34;;;19.24;85.40
19208;BME280;9737;59.466;18.036;2023-09-12T08:04:53;101260.09;;;19.31;85.28
19208;BME280;9737;59.466;18.036;2023-09-12T08:07:21;101219.31;;;19.16;85.28
19208;BME280;9737;59.466;18.036;2023-09-12T08:09:51;101268.75;;;19.35;85.14
19208;BME280;9737;59.466;18.036;2023-09-12T08:12:21;101243.69;;;19.25;85.27
19208;BME280;9737;59.466;18.036;2023-09-12T08:14:50;101269.75;;;19.34;85.33
19208;BME280;9737;59.466;18.036;2023-09-12T08:17:18;101238.13;;;19.26;85.19
19208;BME280;9737;59.466;18.036;2023-09-12T08:19:46;101238.13;;;19.26;85.15
19208;BME280;9737;59.466;18.036;2023-09-12T08:22:14;101207.22;;;19.21;85.20
19208;BME280;9737;59.466;18.036;2023-09-12T08:24:42;101220.56;;;19.22;85.25
19208;BME280;9737;59.466;18.036;2023-09-12T08:27:10;101268.03;;;19.33;85.02
19208;BME280;9737;59.466;18.036;2023-09-12T08:29:40;101310.34;;;19.42;85.11
19208;BME280;9737;59.466;18.036;2023-09-12T08:32:08;101372.75;;;19.57;85.01
19208;BME280;9737;59.466;18.036;2023-09-12T08:34:36;101409.63;;;19.66;85.06
19208;BME280;9737;59.466;18.036;2023-09-12T08:37:04;101419.47;;;19.67;85.10
19208;BME280;9737;59.466;18.036;2023-09-12T08:39:40;101497.94;;;19.83;85.09
19208;BME280;9737;59.466;18.036;2023-09-12T08:42:12;101543.66;;;19.94;84.95
19208;BME280;9737;59.466;18.036;2023-09-12T08:44:42;101576.34;;;20.01;84.96
19208;BME280;9737;59.466;18.036;2023-09-12T08:47:11;101589.00;;;20.00;85.02
19208;BME280;9737;59.466;18.036;2023-09-12T08:49:40;101615.97;;;20.10;84.97
19208;BME280;9737;59.466;18.036;2023-09-12T08:52:09;101660.13;;;20.19;84.98
19208;BME280;9737;59.466;18.036;2023-09-12T08:54:37;101651.34;;;20.17;84.82
19208;BME280;9737;59.466;18.036;2023-09-12T08:57:06;101653.03;;;20.18;84.87
19208;BME280;9737;59.466;18.036;2023-09-12T08:59:34;101643.38;;;20.15;84.72
19208;BME280;9737;59.466;18.036;2023-09-12T09:02:06;101606.31;;;20.07;84.78
19208;BME280;9737;59.466;18.036;2023-09-12T09:04:38;101562.28;;;19.97;84.86
19208;BME280;9737;59.466;18.036;2023-09-12T09:07:07;101517.25;;;19.88;84.79
19208;BME280;9737;59.466;18.036;2023-09-12T09:09:38;101530.28;;;19.93;84.74
19208;BME280;9737;59.466;18.036;2023-09-12T09:12:07;101571.78;;;20.01;84.69
19208;BME280;9737;59.466;18.036;2023-09-12T09:14:35;101633.44;;;20.16;84.68
19208;BME280;9737;59.466;18.036;2023-09-12T09:17:04;101579.75;;;20.03;84.74
19208;BME280;9737;59.466;18.036;2023-09-12T09:19:41;101572.94;;;19.99;84.66
19208;BME280;9737;59.466;18.036;2023-09-12T09:22:09;101531.44;;;19.90;84.49
19208;BME280;9737;59.466;18.036;2023-09-12T09:24:37;101562.28;;;19.97;84.51
19208;BME280;9737;59.466;18.036;2023-09-12T09:27:05;101565.38;;;20.02;84.58
19208;BME280;9737;59.466;18.036;2023-09-12T09:29:46;101674.94;;;20.24;84.50
19208;BME280;9737;59.466;18.036;2023-09-12T09:32:19;101764.78;;;20.46;84.38
19208;BME280;9737;59.466;18.036;2023-09-12T09:34:49;101768.47;;;20.45;84.46
19208;BME280;9737;59.466;18.036;2023-09-12T09:37:16;101753.41;;;20.42;84.41
19208;BME280;9737;59.466;18.036;2023-09-12T09:39:47;101743.72;;;20.39;84.30
19208;BME280;9737;59.466;18.036;2023-09-12T09:42:19;101734.03;;;20.37;84.26
19208;BME280;9737;59.466;18.036;2023-09-12T09:44:47;101828.50;;;20.58;84.22
19208;BME280;9737;59.466;18.036;2023-09-12T09:47:19;101957.38;;;20.86;84.29
19208;BME280;9737;59.466;18.036;2023-09-12T09:49:47;102066.84;;;21.11;84.09
19208;BME280;9737;59.466;18.036;2023-09-12T09:52:15;102162.44;;;21.31;84.11
19208;BME280;9737;59.466;18.036;2023-09-12T09:54:43;102202.47;;;21.37;83.97
19208;BME280;9737;59.466;18.036;2023-09-12T09:57:12;102346.59;;;21.70;84.16
19208;BME280;9737;59.466;18.036;2023-09-12T09:59:40;102511.50;;;22.03;84.21
19208;BME280;9737;59.466;18.036;2023-09-12T10:02:16;102867.16;;;22.79;83.79
19208;BME280;9737;59.466;18.036;2023-09-12T10:04:51;102979.03;;;23.03;83.69
19208;BME280;9737;59.466;18.036;2023-09-12T10:07:24;103100.81;;;23.29;83.85
19208;BME280;9737;59.466;18.036;2023-09-12T10:09:53;103129.41;;;23.33;83.88
19208;BME280;9737;59.466;18.036;2023-09-12T10:12:21;103210.31;;;23.50;83.84
19208;BME280;9737;59.466;18.036;2023-09-12T10:14:50;103486.34;;;24.07;83.55
19208;BME280;9737;59.466;18.036;2023-09-12T10:17:20;103836.94;;;24.77;83.51
19208;BME280;9737;59.466;18.036;2023-09-12T10:19:56;104042.25;;;25.21;83.38
19208;BME280;9737;59.466;18.036;2023-09-12T10:22:31;104124.34;;;25.39;83.34
19208;BME280;9737;59.466;18.036;2023-09-12T10:25:00;104506.72;;;26.12;83.25
19208;BME280;9737;59.466;18.036;2023-09-12T10:27:29;104734.25;;;26.59;82.89
19208;BME280;9737;59.466;18.036;2023-09-12T10:29:58;104906.56;;;26.93;82.79
19208;BME280;9737;59.466;18.036;2023-09-12T10:32:28;104995.38;;;27.11;83.06
19208;BME280;9737;59.466;18.036;2023-09-12T10:34:58;105233.53;;;27.57;82.58
19208;BME280;9737;59.466;18.036;2023-09-12T10:37:29;105622.38;;;28.32;82.62
19208;BME280;9737;59.466;18.036;2023-09-12T10:39:57;105489.91;;;28.07;82.38
19208;BME280;9737;59.466;18.036;2023-09-12T10:42:27;104956.59;;;27.06;82.42
19208;BME280;9737;59.466;18.036;2023-09-12T10:44:57;104743.00;;;26.64;82.21
19208;BME280;9737;59.466;18.036;2023-09-12T10:47:28;104766.13;;;26.71;82.50
19208;BME280;9737;59.466;18.036;2023-09-12T10:49:57;104966.31;;;27.10;82.42
19208;BME280;9737;59.466;18.036;2023-09-12T10:52:26;104853.91;;;26.91;82.01
19208;BME280;9737;59.466;18.036;2023-09-12T10:54:55;104633.19;;;26.48;81.93
19208;BME280;9737;59.466;18.036;2023-09-12T10:57:23;104044.22;;;25.30;82.05
19208;BME280;9737;59.466;18.036;2023-09-12T11:00:11;103388.22;;;23.99;81.93
19208;BME280;9737;59.466;18.036;2023-09-12T11:02:40;103112.22;;;23.43;81.67
19208;BME280;9737;59.466;18.036;2023-09-12T11:08:07;102978.56;;;23.19;81.63
19208;BME280;9737;59.466;18.036;2023-09-12T11:10:35;103027.22;;;23.32;81.64
19208;BME280;9737;59.466;18.036;2023-09-12T11:13:03;102950.84;;;23.15;81.29
19208;BME280;9737;59.466;18.036;2023-09-12T11:15:31;102830.88;;;22.91;81.46
19208;BME280;9737;59.466;18.036;2023-09-12T11:18:02;102765.06;;;22.78;81.25
19208;BME280;9737;59.466;18.036;2023-09-12T11:20:52;102658.38;;;22.58;81.29
19208;BME280;9737;59.466;18.036;2023-09-12T11:23:22;102521.00;;;22.28;80.98
19208;BME280;9737;59.466;18.036;2023-09-12T11:26:02;102388.00;;;22.01;80.88
19208;BME280;9737;59.466;18.036;2023-09-12T11:28:31;102359.44;;;21.96;80.72
19208;BME280;9737;59.466;18.036;2023-09-12T11:30:59;102353.16;;;21.96;80.74
19208;BME280;9737;59.466;18.036;2023-09-12T11:33:28;102477.91;;;22.25;80.53
19208;BME280;9737;59.466;18.036;2023-09-12T11:35:56;102554.00;;;22.43;80.42
19208;BME280;9737;59.466;18.036;2023-09-12T11:38:30;102704.66;;;22.76;80.04
19208;BME280;9737;59.466;18.036;2023-09-12T11:40:59;102758.16;;;22.85;80.43
19208;BME280;9737;59.466;18.036;2023-09-12T11:43:28;102966.75;;;23.30;80.19
19208;BME280;9737;59.466;18.036;2023-09-12T11:45:56;103120.50;;;23.63;80.12
19208;BME280;9737;59.466;18.036;2023-09-12T11:48:25;103061.66;;;23.52;80.14
19208;BME280;9737;59.466;18.036;2023-09-12T11:50:54;102938.16;;;23.26;80.01
19208;BME280;9737;59.466;18.036;2023-09-12T11:53:27;102804.03;;;22.98;79.91
19208;BME280;9737;59.466;18.036;2023-09-12T11:56:00;102694.69;;;22.76;79.65
19208;BME280;9737;59.466;18.036;2023-09-12T11:58:28;102649.25;;;22.69;79.87
19208;BME280;9737;59.466;18.036;2023-09-12T12:00:58;102677.53;;;22.76;79.80
19208;BME280;9737;59.466;18.036;2023-09-12T12:03:27;102657.97;;;22.72;79.47
19208;BME280;9737;59.466;18.036;2023-09-12T12:05:56;102646.41;;;22.70;79.65
19208;BME280;9737;59.466;18.036;2023-09-12T12:08:25;102665.84;;;22.75;79.62
19208;BME280;9737;59.466;18.036;2023-09-12T12:10:59;102712.91;;;22.85;79.15
19208;BME280;9737;59.466;18.036;2023-09-12T12:13:29;102681.69;;;22.80;79.09
19208;BME280;9737;59.466;18.036;2023-09-12T12:15:57;102648.69;;;22.75;79.35
19208;BME280;9737;59.466;18.036;2023-09-12T12:18:26;102613.28;;;22.67;79.07
19208;BME280;9737;59.466;18.036;2023-09-12T12:20:54;102586.44;;;22.64;79.26
19208;BME280;9737;59.466;18.036;2023-09-12T12:23:22;102555.47;;;22.56;79.04
19208;BME280;9737;59.466;18.036;2023-09-12T12:25:50;102623.56;;;22.73;78.91
19208;BME280;9737;59.466;18.036;2023-09-12T12:28:18;102732.03;;;22.94;78.93
19208;BME280;9737;59.466;18.036;2023-09-12T12:30:51;102846.41;;;23.20;78.54
19208;BME280;9737;59.466;18.036;2023-09-12T12:33:20;102992.03;;;23.51;78.67
19208;BME280;9737;59.466;18.036;2023-09-12T12:36:08;103016.94;;;23.56;78.64
19208;BME280;9737;59.466;18.036;2023-09-12T12:38:38;103100.28;;;23.76;78.69
19208;BME280;9737;59.466;18.036;2023-09-12T12:41:27;103157.25;;;23.88;78.28
19208;BME280;9737;59.466;18.036;2023-09-12T12:44:12;103268.44;;;24.12;78.47
19208;BME280;9737;59.466;18.036;2023-09-12T12:46:49;103521.53;;;24.63;78.24
19208;BME280;9737;59.466;18.036;2023-09-12T12:49:18;103663.91;;;24.95;78.22
19208;BME280;9737;59.466;18.036;2023-09-12T12:51:47;103795.09;;;25.23;78.11
19208;BME280;9737;59.466;18.036;2023-09-12T12:54:15;103771.94;;;25.17;78.01
19208;BME280;9737;59.466;18.036;2023-09-12T12:56:43;103746.81;;;25.14;77.97
19208;BME280;9737;59.466;18.036;2023-09-12T12:59:12;103583.81;;;24.77;77.95
19208;BME280;9737;59.466;18.036;2023-09-12T13:01:40;103473.03;;;24.57;77.99
19208;BME280;9737;59.466;18.036;2023-09-12T13:04:09;103306.41;;;24.23;77.71
19208;BME280;9737;59.466;18.036;2023-09-12T13:06:38;103179.78;;;23.99;77.88
19208;BME280;9737;59.466;18.036;2023-09-12T13:09:07;103089.00;;;23.81;77.52